Aeroporto :
LOGIN :

Iscrizione | Disclaimer

   EN    FR    IT 

 










Sommario :    VFR   VFR Marginale   IFR   IFR Intensivo   IFR Molto Intensivo
Visibilità : 
Base nubi : 
>= 8 km
>= 3000ft
5 / 8 km
1000 / 3000 ft
1500m / 5 km
500 / 1000 ft
800 / 1500m
200 / 500 ft
< 800m
< 200 ft
Simboli :   Temporali  Nebbia  Neve Forte  Precipitazioni Forti  Vento > 20 kt
SIGMETs :   Varie  Temporali  Ghiacco  Turbolenza  Onda orograficha  Ceneri Vulcaniche






- Altitudine del aeroporto : 14 ft
- Codice IATA : BRE


EDDW - Bremen Neuenland

ULTIMO METAR :
  • 200450Z 19009KT 7000 -RADZ BKN011 05/04 Q1014 TEMPO 4500 BKN008

METARs OBSOLETI :
  • 200420Z 18009KT 9999 -RADZ BKN013 05/04 Q1014 TEMPO BKN008
  • 200350Z 19008KT 9999 -RADZ BKN013 04/03 Q1015 TEMPO BKN008
  • 200320Z 19007KT 9999 -RA BKN014 04/03 Q1015
  • 200250Z 20008KT 9999 -RA BKN015 04/02 Q1015
  • 200220Z 21008KT 180V240 9999 FEW015 BKN022 04/02 Q1016

TAF TAF EDDW
Valido dal 20 a 00 ore il 21 a 00 ore UTC


192300Z 2000/2024 20008KT 9999 BKN030
BECMG 2001/2003 BKN012
TEMPO 2002/2010 3500 RADZ BKN007
BECMG 2009/2012 23015G25KT BKN025
TEMPO 2019/2024 4500 RA BKN012
BECMG 2021/2023 29015G30KT



MetMap, La meteo Aeronautica in un colpo d'occhio ! - Copyright ORBIFLY Dicembre 2007 - Disclaimer

ORBIFLY MET'MAP TEAM :

Programmazione e sviluppo : Alexandra Zaïnal
Concezione : Baudouin d'Aumeries
Aiuto per la programmazione : Marc-Olivier Méhu
Supporto tecnico e logistico : Manuel Goepfert
Aiuto per la traduzione : Arnaldo La Scala

Contatto : metmap@orbifly.com




FONTI E CREDITI :

   NOAA